sensor_id;sensor_type;location;lat;lon;timestamp;temperature;humidity
14142;DHT22;7151;52.246;4.820;2022-08-19T00:00:34;24.20;74.30
14142;DHT22;7151;52.246;4.820;2022-08-19T00:03:00;24.20;74.60
14142;DHT22;7151;52.246;4.820;2022-08-19T00:05:26;24.20;74.70
14142;DHT22;7151;52.246;4.820;2022-08-19T00:07:53;24.20;74.70
14142;DHT22;7151;52.246;4.820;2022-08-19T00:10:20;24.20;74.70
14142;DHT22;7151;52.246;4.820;2022-08-19T00:12:46;24.20;74.70
14142;DHT22;7151;52.246;4.820;2022-08-19T00:15:15;24.10;74.70
14142;DHT22;7151;52.246;4.820;2022-08-19T00:17:44;24.20;74.90
14142;DHT22;7151;52.246;4.820;2022-08-19T00:20:13;24.20;74.90
14142;DHT22;7151;52.246;4.820;2022-08-19T00:22:41;24.10;75.00
14142;DHT22;7151;52.246;4.820;2022-08-19T00:25:07;24.10;75.00
14142;DHT22;7151;52.246;4.820;2022-08-19T00:27:33;24.20;75.10
14142;DHT22;7151;52.246;4.820;2022-08-19T00:29:59;24.10;75.10
14142;DHT22;7151;52.246;4.820;2022-08-19T00:32:25;24.10;75.20
14142;DHT22;7151;52.246;4.820;2022-08-19T00:34:51;24.10;75.20
14142;DHT22;7151;52.246;4.820;2022-08-19T00:37:19;24.10;75.30
14142;DHT22;7151;52.246;4.820;2022-08-19T00:39:44;24.10;75.30
14142;DHT22;7151;52.246;4.820;2022-08-19T00:42:10;24.10;75.30
14142;DHT22;7151;52.246;4.820;2022-08-19T00:44:36;24.10;75.30
14142;DHT22;7151;52.246;4.820;2022-08-19T00:47:01;24.10;75.40
14142;DHT22;7151;52.246;4.820;2022-08-19T00:52:04;24.00;75.40
14142;DHT22;7151;52.246;4.820;2022-08-19T00:54:31;24.00;75.50
14142;DHT22;7151;52.246;4.820;2022-08-19T00:56:59;24.00;75.30
14142;DHT22;7151;52.246;4.820;2022-08-19T00:59:27;24.00;75.40
14142;DHT22;7151;52.246;4.820;2022-08-19T01:01:53;23.90;75.30
14142;DHT22;7151;52.246;4.820;2022-08-19T01:04:19;23.90;75.40
14142;DHT22;7151;52.246;4.820;2022-08-19T01:06:45;23.90;75.30
14142;DHT22;7151;52.246;4.820;2022-08-19T01:09:10;23.90;75.30
14142;DHT22;7151;52.246;4.820;2022-08-19T01:11:39;23.80;75.30
14142;DHT22;7151;52.246;4.820;2022-08-19T01:14:06;23.80;75.40
14142;DHT22;7151;52.246;4.820;2022-08-19T01:16:33;23.80;75.40
14142;DHT22;7151;52.246;4.820;2022-08-19T01:18:59;23.80;75.40
14142;DHT22;7151;52.246;4.820;2022-08-19T01:23:57;23.70;75.40
14142;DHT22;7151;52.246;4.820;2022-08-19T01:26:24;23.70;75.40
14142;DHT22;7151;52.246;4.820;2022-08-19T01:28:53;23.70;75.40
14142;DHT22;7151;52.246;4.820;2022-08-19T01:31:22;23.70;75.40
14142;DHT22;7151;52.246;4.820;2022-08-19T01:33:49;23.70;75.40
14142;DHT22;7151;52.246;4.820;2022-08-19T01:36:23;23.60;75.40
14142;DHT22;7151;52.246;4.820;2022-08-19T01:38:51;23.60;75.50
14142;DHT22;7151;52.246;4.820;2022-08-19T01:41:17;23.60;75.50
14142;DHT22;7151;52.246;4.820;2022-08-19T01:43:43;23.50;75.50
14142;DHT22;7151;52.246;4.820;2022-08-19T01:46:09;23.60;75.60
14142;DHT22;7151;52.246;4.820;2022-08-19T01:48:38;23.60;75.70
14142;DHT22;7151;52.246;4.820;2022-08-19T01:51:04;23.50;75.70
14142;DHT22;7151;52.246;4.820;2022-08-19T01:53:30;23.50;75.70
14142;DHT22;7151;52.246;4.820;2022-08-19T01:55:56;23.60;75.70
14142;DHT22;7151;52.246;4.820;2022-08-19T01:58:26;23.50;75.70
14142;DHT22;7151;52.246;4.820;2022-08-19T02:00:54;23.50;75.80
14142;DHT22;7151;52.246;4.820;2022-08-19T02:03:20;23.50;75.90
14142;DHT22;7151;52.246;4.820;2022-08-19T02:05:45;23.40;75.90
14142;DHT22;7151;52.246;4.820;2022-08-19T02:08:12;23.50;75.90
14142;DHT22;7151;52.246;4.820;2022-08-19T02:10:43;23.40;75.90
14142;DHT22;7151;52.246;4.820;2022-08-19T02:13:09;23.40;76.00
14142;DHT22;7151;52.246;4.820;2022-08-19T02:15:35;23.40;75.90
14142;DHT22;7151;52.246;4.820;2022-08-19T02:18:01;23.40;76.00
14142;DHT22;7151;52.246;4.820;2022-08-19T02:20:27;23.40;76.00
14142;DHT22;7151;52.246;4.820;2022-08-19T02:22:52;23.30;75.90
14142;DHT22;7151;52.246;4.820;2022-08-19T02:25:18;23.40;76.00
14142;DHT22;7151;52.246;4.820;2022-08-19T02:27:43;23.30;75.90
14142;DHT22;7151;52.246;4.820;2022-08-19T02:30:12;23.30;75.90
14142;DHT22;7151;52.246;4.820;2022-08-19T02:32:38;23.30;75.90
14142;DHT22;7151;52.246;4.820;2022-08-19T02:35:04;23.20;75.90
14142;DHT22;7151;52.246;4.820;2022-08-19T02:37:30;23.30;76.00
14142;DHT22;7151;52.246;4.820;2022-08-19T02:40:29;23.30;76.10
14142;DHT22;7151;52.246;4.820;2022-08-19T02:42:55;23.30;76.10
14142;DHT22;7151;52.246;4.820;2022-08-19T02:45:21;23.20;76.00
14142;DHT22;7151;52.246;4.820;2022-08-19T02:47:47;23.20;76.10
14142;DHT22;7151;52.246;4.820;2022-08-19T02:50:12;23.20;76.10
14142;DHT22;7151;52.246;4.820;2022-08-19T02:52:39;23.20;76.10
14142;DHT22;7151;52.246;4.820;2022-08-19T02:55:05;23.20;76.10
14142;DHT22;7151;52.246;4.820;2022-08-19T02:57:31;23.20;76.10
14142;DHT22;7151;52.246;4.820;2022-08-19T02:59:59;23.10;76.10
14142;DHT22;7151;52.246;4.820;2022-08-19T03:02:26;23.10;76.00
14142;DHT22;7151;52.246;4.820;2022-08-19T03:04:52;23.10;76.00
14142;DHT22;7151;52.246;4.820;2022-08-19T03:07:18;23.10;76.00
14142;DHT22;7151;52.246;4.820;2022-08-19T03:09:44;23.10;76.00
14142;DHT22;7151;52.246;4.820;2022-08-19T03:12:10;23.10;76.00
14142;DHT22;7151;52.246;4.820;2022-08-19T03:14:36;23.00;76.00
14142;DHT22;7151;52.246;4.820;2022-08-19T03:17:02;23.00;76.00
14142;DHT22;7151;52.246;4.820;2022-08-19T03:19:29;23.00;76.10
14142;DHT22;7151;52.246;4.820;2022-08-19T03:21:55;23.00;76.10
14142;DHT22;7151;52.246;4.820;2022-08-19T03:24:21;23.00;76.20
14142;DHT22;7151;52.246;4.820;2022-08-19T03:26:49;23.00;76.10
14142;DHT22;7151;52.246;4.820;2022-08-19T03:29:18;22.90;76.10
14142;DHT22;7151;52.246;4.820;2022-08-19T03:31:44;22.90;76.20
14142;DHT22;7151;52.246;4.820;2022-08-19T03:34:16;22.90;76.20
14142;DHT22;7151;52.246;4.820;2022-08-19T03:36:43;22.90;76.30
14142;DHT22;7151;52.246;4.820;2022-08-19T03:39:10;22.90;76.30
14142;DHT22;7151;52.246;4.820;2022-08-19T03:41:41;22.90;76.30
14142;DHT22;7151;52.246;4.820;2022-08-19T03:44:07;22.90;76.40
14142;DHT22;7151;52.246;4.820;2022-08-19T03:46:34;22.90;76.40
14142;DHT22;7151;52.246;4.820;2022-08-19T03:49:01;22.80;76.40
14142;DHT22;7151;52.246;4.820;2022-08-19T03:51:37;22.80;76.50
14142;DHT22;7151;52.246;4.820;2022-08-19T03:54:06;22.80;76.50
14142;DHT22;7151;52.246;4.820;2022-08-19T03:56:37;22.80;76.50
14142;DHT22;7151;52.246;4.820;2022-08-19T03:59:04;22.80;76.60
14142;DHT22;7151;52.246;4.820;2022-08-19T04:01:30;22.80;76.70
14142;DHT22;7151;52.246;4.820;2022-08-19T04:03:57;22.80;76.70
14142;DHT22;7151;52.246;4.820;2022-08-19T04:06:26;22.80;76.70
14142;DHT22;7151;52.246;4.820;2022-08-19T04:08:53;22.80;76.70
14142;DHT22;7151;52.246;4.820;2022-08-19T04:11:25;22.80;76.80
14142;DHT22;7151;52.246;4.820;2022-08-19T04:13:52;22.80;77.00
14142;DHT22;7151;52.246;4.820;2022-08-19T04:16:21;22.80;77.10
14142;DHT22;7151;52.246;4.820;2022-08-19T04:18:48;22.80;77.20
14142;DHT22;7151;52.246;4.820;2022-08-19T04:21:22;22.80;77.30
14142;DHT22;7151;52.246;4.820;2022-08-19T04:23:48;22.80;77.50
14142;DHT22;7151;52.246;4.820;2022-08-19T04:26:16;22.80;77.50
14142;DHT22;7151;52.246;4.820;2022-08-19T04:28:42;22.80;77.60
14142;DHT22;7151;52.246;4.820;2022-08-19T04:31:18;22.70;77.50
14142;DHT22;7151;52.246;4.820;2022-08-19T04:33:44;22.70;77.50
14142;DHT22;7151;52.246;4.820;2022-08-19T04:36:22;22.80;77.50
14142;DHT22;7151;52.246;4.820;2022-08-19T04:38:49;22.70;77.50
14142;DHT22;7151;52.246;4.820;2022-08-19T04:41:16;22.70;77.50
14142;DHT22;7151;52.246;4.820;2022-08-19T04:44:00;22.70;77.60
14142;DHT22;7151;52.246;4.820;2022-08-19T04:46:27;22.70;77.60
14142;DHT22;7151;52.246;4.820;2022-08-19T04:48:55;22.70;77.80
14142;DHT22;7151;52.246;4.820;2022-08-19T04:51:22;22.70;77.90
14142;DHT22;7151;52.246;4.820;2022-08-19T04:53:48;22.60;77.90
14142;DHT22;7151;52.246;4.820;2022-08-19T04:56:15;22.60;78.00
14142;DHT22;7151;52.246;4.820;2022-08-19T04:58:43;22.60;78.20
14142;DHT22;7151;52.246;4.820;2022-08-19T05:01:12;22.60;78.30
14142;DHT22;7151;52.246;4.820;2022-08-19T05:03:39;22.60;78.50
14142;DHT22;7151;52.246;4.820;2022-08-19T05:06:10;22.60;78.50
14142;DHT22;7151;52.246;4.820;2022-08-19T05:08:38;22.60;78.70
14142;DHT22;7151;52.246;4.820;2022-08-19T05:11:14;22.60;78.80
14142;DHT22;7151;52.246;4.820;2022-08-19T05:13:40;22.60;79.10
14142;DHT22;7151;52.246;4.820;2022-08-19T05:16:06;22.60;79.20
14142;DHT22;7151;52.246;4.820;2022-08-19T05:18:31;22.60;79.40
14142;DHT22;7151;52.246;4.820;2022-08-19T05:21:17;22.60;79.60
14142;DHT22;7151;52.246;4.820;2022-08-19T05:24:04;22.70;79.90
14142;DHT22;7151;52.246;4.820;2022-08-19T05:26:38;22.60;79.90
14142;DHT22;7151;52.246;4.820;2022-08-19T05:29:04;22.70;80.10
14142;DHT22;7151;52.246;4.820;2022-08-19T05:31:30;22.70;80.20
14142;DHT22;7151;52.246;4.820;2022-08-19T05:33:56;22.70;80.30
14142;DHT22;7151;52.246;4.820;2022-08-19T05:36:24;22.70;80.40
14142;DHT22;7151;52.246;4.820;2022-08-19T05:38:50;22.70;80.50
14142;DHT22;7151;52.246;4.820;2022-08-19T05:41:16;22.70;80.50
14142;DHT22;7151;52.246;4.820;2022-08-19T05:43:42;22.70;80.70
14142;DHT22;7151;52.246;4.820;2022-08-19T05:46:08;22.70;80.80
14142;DHT22;7151;52.246;4.820;2022-08-19T05:48:40;22.80;80.90
14142;DHT22;7151;52.246;4.820;2022-08-19T05:51:06;22.80;80.90
14142;DHT22;7151;52.246;4.820;2022-08-19T05:53:34;22.80;81.00
14142;DHT22;7151;52.246;4.820;2022-08-19T05:56:12;22.80;81.00
14142;DHT22;7151;52.246;4.820;2022-08-19T05:58:38;22.70;81.10
14142;DHT22;7151;52.246;4.820;2022-08-19T06:01:09;22.80;81.10
14142;DHT22;7151;52.246;4.820;2022-08-19T06:03:36;22.80;81.20
14142;DHT22;7151;52.246;4.820;2022-08-19T06:06:03;22.80;81.40
14142;DHT22;7151;52.246;4.820;2022-08-19T06:08:29;22.80;81.50
14142;DHT22;7151;52.246;4.820;2022-08-19T06:10:56;22.80;81.60
14142;DHT22;7151;52.246;4.820;2022-08-19T06:13:22;22.80;81.80
14142;DHT22;7151;52.246;4.820;2022-08-19T06:15:48;22.90;82.00
14142;DHT22;7151;52.246;4.820;2022-08-19T06:18:14;22.90;82.10
14142;DHT22;7151;52.246;4.820;2022-08-19T06:20:41;22.90;82.20
14142;DHT22;7151;52.246;4.820;2022-08-19T06:23:07;22.90;82.30
14142;DHT22;7151;52.246;4.820;2022-08-19T06:25:33;22.90;82.50
14142;DHT22;7151;52.246;4.820;2022-08-19T06:27:59;22.90;82.50
14142;DHT22;7151;52.246;4.820;2022-08-19T06:30:24;22.90;82.60
14142;DHT22;7151;52.246;4.820;2022-08-19T06:32:50;23.00;82.90
14142;DHT22;7151;52.246;4.820;2022-08-19T06:35:16;23.00;83.10
14142;DHT22;7151;52.246;4.820;2022-08-19T06:37:42;23.00;83.10
14142;DHT22;7151;52.246;4.820;2022-08-19T06:40:08;23.00;83.20
14142;DHT22;7151;52.246;4.820;2022-08-19T06:42:35;23.00;83.30
14142;DHT22;7151;52.246;4.820;2022-08-19T06:45:04;23.10;83.40
14142;DHT22;7151;52.246;4.820;2022-08-19T06:47:31;23.10;83.60
14142;DHT22;7151;52.246;4.820;2022-08-19T06:49:59;23.10;83.70
14142;DHT22;7151;52.246;4.820;2022-08-19T06:52:31;23.10;84.00
14142;DHT22;7151;52.246;4.820;2022-08-19T06:54:58;23.20;84.20
14142;DHT22;7151;52.246;4.820;2022-08-19T06:57:25;23.20;84.30
14142;DHT22;7151;52.246;4.820;2022-08-19T06:59:51;23.20;84.40
14142;DHT22;7151;52.246;4.820;2022-08-19T07:02:17;23.20;84.50
14142;DHT22;7151;52.246;4.820;2022-08-19T07:04:43;23.30;84.70
14142;DHT22;7151;52.246;4.820;2022-08-19T07:07:11;23.30;84.80
14142;DHT22;7151;52.246;4.820;2022-08-19T07:09:39;23.40;85.10
14142;DHT22;7151;52.246;4.820;2022-08-19T07:12:07;23.40;85.10
14142;DHT22;7151;52.246;4.820;2022-08-19T07:14:33;23.40;85.20
14142;DHT22;7151;52.246;4.820;2022-08-19T07:17:04;23.40;85.10
14142;DHT22;7151;52.246;4.820;2022-08-19T07:19:31;23.50;85.20
14142;DHT22;7151;52.246;4.820;2022-08-19T07:21:57;23.50;85.30
14142;DHT22;7151;52.246;4.820;2022-08-19T07:24:26;23.50;85.40
14142;DHT22;7151;52.246;4.820;2022-08-19T07:26:54;23.50;86.10
14142;DHT22;7151;52.246;4.820;2022-08-19T07:29:21;23.60;85.50
14142;DHT22;7151;52.246;4.820;2022-08-19T07:31:49;23.60;85.40
14142;DHT22;7151;52.246;4.820;2022-08-19T07:34:14;23.60;85.50
14142;DHT22;7151;52.246;4.820;2022-08-19T07:36:42;23.70;85.60
14142;DHT22;7151;52.246;4.820;2022-08-19T07:39:17;23.70;85.70
14142;DHT22;7151;52.246;4.820;2022-08-19T07:41:44;23.70;85.80
14142;DHT22;7151;52.246;4.820;2022-08-19T07:44:10;23.70;85.90
14142;DHT22;7151;52.246;4.820;2022-08-19T07:46:39;23.70;86.10
14142;DHT22;7151;52.246;4.820;2022-08-19T07:49:07;23.80;86.20
14142;DHT22;7151;52.246;4.820;2022-08-19T07:51:33;23.80;86.20
14142;DHT22;7151;52.246;4.820;2022-08-19T07:53:59;23.80;86.20
14142;DHT22;7151;52.246;4.820;2022-08-19T07:56:25;23.90;86.40
14142;DHT22;7151;52.246;4.820;2022-08-19T07:58:51;23.90;86.50
14142;DHT22;7151;52.246;4.820;2022-08-19T08:01:21;24.00;86.70
14142;DHT22;7151;52.246;4.820;2022-08-19T08:03:49;24.00;86.80
14142;DHT22;7151;52.246;4.820;2022-08-19T08:06:33;24.00;86.70
14142;DHT22;7151;52.246;4.820;2022-08-19T08:09:22;24.10;86.60
14142;DHT22;7151;52.246;4.820;2022-08-19T08:11:49;24.20;86.60
14142;DHT22;7151;52.246;4.820;2022-08-19T08:14:21;24.10;86.40
14142;DHT22;7151;52.246;4.820;2022-08-19T08:16:48;24.20;86.50
14142;DHT22;7151;52.246;4.820;2022-08-19T08:19:18;24.30;86.40
14142;DHT22;7151;52.246;4.820;2022-08-19T08:21:44;24.30;86.20
14142;DHT22;7151;52.246;4.820;2022-08-19T08:24:10;24.30;86.30
14142;DHT22;7151;52.246;4.820;2022-08-19T08:26:36;24.40;86.40
14142;DHT22;7151;52.246;4.820;2022-08-19T08:29:02;24.40;86.20
14142;DHT22;7151;52.246;4.820;2022-08-19T08:31:28;24.50;86.10
14142;DHT22;7151;52.246;4.820;2022-08-19T08:33:54;24.50;86.20
14142;DHT22;7151;52.246;4.820;2022-08-19T08:36:20;24.50;86.30
14142;DHT22;7151;52.246;4.820;2022-08-19T08:38:46;24.60;86.20
14142;DHT22;7151;52.246;4.820;2022-08-19T08:41:34;24.60;85.90
14142;DHT22;7151;52.246;4.820;2022-08-19T08:44:03;24.70;86.00
14142;DHT22;7151;52.246;4.820;2022-08-19T08:46:39;24.70;85.90
14142;DHT22;7151;52.246;4.820;2022-08-19T08:51:52;24.80;85.80
14142;DHT22;7151;52.246;4.820;2022-08-19T08:54:24;24.90;85.70
14142;DHT22;7151;52.246;4.820;2022-08-19T08:56:53;25.00;85.50
14142;DHT22;7151;52.246;4.820;2022-08-19T08:59:35;25.00;85.30
14142;DHT22;7151;52.246;4.820;2022-08-19T09:02:02;25.00;85.60
14142;DHT22;7151;52.246;4.820;2022-08-19T09:04:28;25.00;84.70
14142;DHT22;7151;52.246;4.820;2022-08-19T09:07:24;25.10;84.30
14142;DHT22;7151;52.246;4.820;2022-08-19T09:09:52;25.10;83.90
14142;DHT22;7151;52.246;4.820;2022-08-19T09:12:48;25.10;83.60
14142;DHT22;7151;52.246;4.820;2022-08-19T09:15:18;25.20;83.70
14142;DHT22;7151;52.246;4.820;2022-08-19T09:17:47;25.20;83.50
14142;DHT22;7151;52.246;4.820;2022-08-19T09:20:20;25.30;83.60
14142;DHT22;7151;52.246;4.820;2022-08-19T09:22:46;25.30;83.10
14142;DHT22;7151;52.246;4.820;2022-08-19T09:25:16;25.50;83.10
14142;DHT22;7151;52.246;4.820;2022-08-19T09:27:43;25.60;83.10
14142;DHT22;7151;52.246;4.820;2022-08-19T09:30:18;25.70;83.10
14142;DHT22;7151;52.246;4.820;2022-08-19T09:32:44;25.80;82.80
14142;DHT22;7151;52.246;4.820;2022-08-19T09:35:11;26.00;82.70
14142;DHT22;7151;52.246;4.820;2022-08-19T09:37:37;26.10;82.60
14142;DHT22;7151;52.246;4.820;2022-08-19T09:40:04;26.20;82.30
14142;DHT22;7151;52.246;4.820;2022-08-19T09:42:29;26.40;82.50
14142;DHT22;7151;52.246;4.820;2022-08-19T09:44:55;26.50;82.30
14142;DHT22;7151;52.246;4.820;2022-08-19T09:47:20;26.60;82.10
14142;DHT22;7151;52.246;4.820;2022-08-19T09:49:46;26.80;81.90
14142;DHT22;7151;52.246;4.820;2022-08-19T09:52:14;26.90;81.50
14142;DHT22;7151;52.246;4.820;2022-08-19T09:54:40;27.00;81.30
14142;DHT22;7151;52.246;4.820;2022-08-19T09:57:06;27.10;80.90
14142;DHT22;7151;52.246;4.820;2022-08-19T09:59:32;27.10;80.40
14142;DHT22;7151;52.246;4.820;2022-08-19T10:01:57;27.20;80.20
14142;DHT22;7151;52.246;4.820;2022-08-19T10:04:23;27.20;80.10
14142;DHT22;7151;52.246;4.820;2022-08-19T10:07:09;27.30;79.90
14142;DHT22;7151;52.246;4.820;2022-08-19T10:09:34;27.30;79.70
14142;DHT22;7151;52.246;4.820;2022-08-19T10:12:00;27.40;79.80
14142;DHT22;7151;52.246;4.820;2022-08-19T10:14:26;27.40;79.50
14142;DHT22;7151;52.246;4.820;2022-08-19T10:16:52;27.40;79.40
14142;DHT22;7151;52.246;4.820;2022-08-19T10:19:19;27.40;79.50
14142;DHT22;7151;52.246;4.820;2022-08-19T10:21:46;27.50;79.40
14142;DHT22;7151;52.246;4.820;2022-08-19T10:24:12;27.50;79.40
14142;DHT22;7151;52.246;4.820;2022-08-19T10:26:39;27.50;79.30
14142;DHT22;7151;52.246;4.820;2022-08-19T10:29:10;27.50;79.00
14142;DHT22;7151;52.246;4.820;2022-08-19T10:31:37;27.50;78.70
14142;DHT22;7151;52.246;4.820;2022-08-19T10:34:02;27.60;78.00
14142;DHT22;7151;52.246;4.820;2022-08-19T10:36:34;27.40;76.90
14142;DHT22;7151;52.246;4.820;2022-08-19T10:39:04;27.60;76.30
14142;DHT22;7151;52.246;4.820;2022-08-19T10:41:33;27.60;75.80
14142;DHT22;7151;52.246;4.820;2022-08-19T10:44:04;27.50;75.20
14142;DHT22;7151;52.246;4.820;2022-08-19T10:46:31;27.50;74.70
14142;DHT22;7151;52.246;4.820;2022-08-19T10:48:59;27.50;74.60
14142;DHT22;7151;52.246;4.820;2022-08-19T10:51:25;27.40;74.30
14142;DHT22;7151;52.246;4.820;2022-08-19T10:54:09;27.50;74.20
14142;DHT22;7151;52.246;4.820;2022-08-19T10:56:35;27.50;74.00
14142;DHT22;7151;52.246;4.820;2022-08-19T10:59:50;27.50;73.70
14142;DHT22;7151;52.246;4.820;2022-08-19T11:02:10;27.40;73.60
14142;DHT22;7151;52.246;4.820;2022-08-19T11:04:38;27.40;73.70
14142;DHT22;7151;52.246;4.820;2022-08-19T11:07:05;27.40;73.90
14142;DHT22;7151;52.246;4.820;2022-08-19T11:09:35;27.40;73.90
14142;DHT22;7151;52.246;4.820;2022-08-19T11:12:02;27.40;73.90
14142;DHT22;7151;52.246;4.820;2022-08-19T11:14:27;27.40;73.90
14142;DHT22;7151;52.246;4.820;2022-08-19T11:16:53;27.40;73.90
14142;DHT22;7151;52.246;4.820;2022-08-19T11:19:22;27.50;73.80
14142;DHT22;7151;52.246;4.820;2022-08-19T11:21:50;27.50;73.70
14142;DHT22;7151;52.246;4.820;2022-08-19T11:24:25;27.50;73.70
14142;DHT22;7151;52.246;4.820;2022-08-19T11:26:53;27.50;73.50
14142;DHT22;7151;52.246;4.820;2022-08-19T11:29:24;27.50;73.50
14142;DHT22;7151;52.246;4.820;2022-08-19T11:31:51;27.60;73.60
14142;DHT22;7151;52.246;4.820;2022-08-19T11:34:21;27.60;73.30
14142;DHT22;7151;52.246;4.820;2022-08-19T11:36:48;27.60;72.80
14142;DHT22;7151;52.246;4.820;2022-08-19T11:39:19;27.60;72.40
14142;DHT22;7151;52.246;4.820;2022-08-19T11:41:45;27.60;72.30
14142;DHT22;7151;52.246;4.820;2022-08-19T11:44:11;27.60;72.20
14142;DHT22;7151;52.246;4.820;2022-08-19T11:46:40;27.60;72.20
14142;DHT22;7151;52.246;4.820;2022-08-19T11:49:07;27.50;71.70
14142;DHT22;7151;52.246;4.820;2022-08-19T11:51:35;27.50;71.60
14142;DHT22;7151;52.246;4.820;2022-08-19T11:54:01;27.40;71.50
14142;DHT22;7151;52.246;4.820;2022-08-19T11:56:27;27.40;71.60
14142;DHT22;7151;52.246;4.820;2022-08-19T11:58:54;27.40;71.80
14142;DHT22;7151;52.246;4.820;2022-08-19T12:01:23;27.40;72.10
14142;DHT22;7151;52.246;4.820;2022-08-19T12:03:51;27.40;72.20
14142;DHT22;7151;52.246;4.820;2022-08-19T12:06:20;27.30;72.10
14142;DHT22;7151;52.246;4.820;2022-08-19T12:08:49;27.30;72.20
14142;DHT22;7151;52.246;4.820;2022-08-19T12:11:15;27.30;72.30
14142;DHT22;7151;52.246;4.820;2022-08-19T12:13:41;27.30;72.10
14142;DHT22;7151;52.246;4.820;2022-08-19T12:16:11;27.30;72.00
14142;DHT22;7151;52.246;4.820;2022-08-19T12:18:39;27.30;72.10
14142;DHT22;7151;52.246;4.820;2022-08-19T12:21:07;27.30;72.30
14142;DHT22;7151;52.246;4.820;2022-08-19T12:23:33;27.20;72.30
14142;DHT22;7151;52.246;4.820;2022-08-19T12:25:58;27.20;72.30
14142;DHT22;7151;52.246;4.820;2022-08-19T12:28:25;27.20;72.50
14142;DHT22;7151;52.246;4.820;2022-08-19T12:30:51;27.20;72.60
14142;DHT22;7151;52.246;4.820;2022-08-19T12:33:18;27.20;72.50
14142;DHT22;7151;52.246;4.820;2022-08-19T12:35:45;27.20;72.60
14142;DHT22;7151;52.246;4.820;2022-08-19T12:38:13;27.20;72.60
14142;DHT22;7151;52.246;4.820;2022-08-19T12:40:38;27.20;72.60
14142;DHT22;7151;52.246;4.820;2022-08-19T12:43:06;27.20;72.50
14142;DHT22;7151;52.246;4.820;2022-08-19T12:45:33;27.20;72.60
14142;DHT22;7151;52.246;4.820;2022-08-19T12:47:59;27.20;72.70
14142;DHT22;7151;52.246;4.820;2022-08-19T12:50:25;27.20;72.60
14142;DHT22;7151;52.246;4.820;2022-08-19T12:52:50;27.30;72.60
14142;DHT22;7151;52.246;4.820;2022-08-19T12:55:16;27.30;72.50
14142;DHT22;7151;52.246;4.820;2022-08-19T12:57:44;27.30;72.30
14142;DHT22;7151;52.246;4.820;2022-08-19T13:00:16;27.30;72.30
14142;DHT22;7151;52.246;4.820;2022-08-19T13:02:45;27.40;72.20
14142;DHT22;7151;52.246;4.820;2022-08-19T13:05:13;27.40;72.10
14142;DHT22;7151;52.246;4.820;2022-08-19T13:07:40;27.40;72.10
14142;DHT22;7151;52.246;4.820;2022-08-19T13:10:08;27.50;72.00
14142;DHT22;7151;52.246;4.820;2022-08-19T13:12:34;27.50;71.80
14142;DHT22;7151;52.246;4.820;2022-08-19T13:15:00;27.50;71.70
14142;DHT22;7151;52.246;4.820;2022-08-19T13:17:25;27.60;71.80
14142;DHT22;7151;52.246;4.820;2022-08-19T13:19:52;27.60;71.90
14142;DHT22;7151;52.246;4.820;2022-08-19T13:22:17;27.60;71.90
14142;DHT22;7151;52.246;4.820;2022-08-19T13:24:43;27.60;72.10
14142;DHT22;7151;52.246;4.820;2022-08-19T13:27:09;27.60;72.00
14142;DHT22;7151;52.246;4.820;2022-08-19T13:29:35;27.60;71.70
14142;DHT22;7151;52.246;4.820;2022-08-19T13:32:19;27.70;71.60
14142;DHT22;7151;52.246;4.820;2022-08-19T13:35:04;27.70;71.20
14142;DHT22;7151;52.246;4.820;2022-08-19T13:37:30;27.80;71.20
14142;DHT22;7151;52.246;4.820;2022-08-19T13:40:19;27.80;71.00
14142;DHT22;7151;52.246;4.820;2022-08-19T13:42:48;27.80;70.60
14142;DHT22;7151;52.246;4.820;2022-08-19T13:45:17;27.80;70.50
14142;DHT22;7151;52.246;4.820;2022-08-19T13:47:46;27.80;70.50
14142;DHT22;7151;52.246;4.820;2022-08-19T13:50:16;27.80;70.50
14142;DHT22;7151;52.246;4.820;2022-08-19T13:52:42;27.90;70.60
14142;DHT22;7151;52.246;4.820;2022-08-19T13:55:10;27.90;70.50
14142;DHT22;7151;52.246;4.820;2022-08-19T13:57:37;28.00;70.50
14142;DHT22;7151;52.246;4.820;2022-08-19T14:00:10;28.00;70.30
14142;DHT22;7151;52.246;4.820;2022-08-19T14:02:37;28.00;69.90
14142;DHT22;7151;52.246;4.820;2022-08-19T14:05:04;28.00;70.00
14142;DHT22;7151;52.246;4.820;2022-08-19T14:07:30;28.00;70.20
14142;DHT22;7151;52.246;4.820;2022-08-19T14:09:55;28.00;70.50
14142;DHT22;7151;52.246;4.820;2022-08-19T14:12:22;28.00;70.60
14142;DHT22;7151;52.246;4.820;2022-08-19T14:14:48;28.10;70.90
14142;DHT22;7151;52.246;4.820;2022-08-19T14:17:13;28.10;70.70
14142;DHT22;7151;52.246;4.820;2022-08-19T14:19:39;28.20;70.40
14142;DHT22;7151;52.246;4.820;2022-08-19T14:22:04;28.20;70.10
14142;DHT22;7151;52.246;4.820;2022-08-19T14:24:30;28.30;70.30
14142;DHT22;7151;52.246;4.820;2022-08-19T14:26:57;28.30;70.20
14142;DHT22;7151;52.246;4.820;2022-08-19T14:29:23;28.30;69.80
14142;DHT22;7151;52.246;4.820;2022-08-19T14:31:48;28.40;69.90
14142;DHT22;7151;52.246;4.820;2022-08-19T14:34:14;28.50;70.10
14142;DHT22;7151;52.246;4.820;2022-08-19T14:36:40;28.60;70.00
14142;DHT22;7151;52.246;4.820;2022-08-19T14:39:07;28.60;69.50
14142;DHT22;7151;52.246;4.820;2022-08-19T14:41:33;28.70;68.90
14142;DHT22;7151;52.246;4.820;2022-08-19T14:43:59;28.80;68.30
14142;DHT22;7151;52.246;4.820;2022-08-19T14:46:28;28.80;68.00
14142;DHT22;7151;52.246;4.820;2022-08-19T14:48:54;28.80;67.60
14142;DHT22;7151;52.246;4.820;2022-08-19T14:51:23;28.70;67.40
14142;DHT22;7151;52.246;4.820;2022-08-19T14:53:50;28.80;67.80
14142;DHT22;7151;52.246;4.820;2022-08-19T14:56:19;28.70;67.70
14142;DHT22;7151;52.246;4.820;2022-08-19T14:58:45;28.80;67.50
14142;DHT22;7151;52.246;4.820;2022-08-19T15:01:11;28.80;67.40
14142;DHT22;7151;52.246;4.820;2022-08-19T15:03:37;28.80;67.20
14142;DHT22;7151;52.246;4.820;2022-08-19T15:06:04;28.80;67.00
14142;DHT22;7151;52.246;4.820;2022-08-19T15:08:32;28.80;67.00
14142;DHT22;7151;52.246;4.820;2022-08-19T15:10:59;28.80;66.90
14142;DHT22;7151;52.246;4.820;2022-08-19T15:13:26;28.80;66.60
14142;DHT22;7151;52.246;4.820;2022-08-19T15:15:53;28.80;66.50
14142;DHT22;7151;52.246;4.820;2022-08-19T15:18:19;28.70;66.80
14142;DHT22;7151;52.246;4.820;2022-08-19T15:20:46;28.80;66.70
14142;DHT22;7151;52.246;4.820;2022-08-19T15:23:17;28.70;66.40
14142;DHT22;7151;52.246;4.820;2022-08-19T15:25:43;28.70;67.20
14142;DHT22;7151;52.246;4.820;2022-08-19T15:28:09;28.70;67.20
14142;DHT22;7151;52.246;4.820;2022-08-19T15:30:39;28.70;66.60
14142;DHT22;7151;52.246;4.820;2022-08-19T15:33:05;28.70;66.70
14142;DHT22;7151;52.246;4.820;2022-08-19T15:35:31;28.60;66.60
14142;DHT22;7151;52.246;4.820;2022-08-19T15:37:57;28.60;66.50
14142;DHT22;7151;52.246;4.820;2022-08-19T15:40:25;28.60;66.30
14142;DHT22;7151;52.246;4.820;2022-08-19T15:42:52;28.60;66.40
14142;DHT22;7151;52.246;4.820;2022-08-19T15:45:19;28.60;66.50
14142;DHT22;7151;52.246;4.820;2022-08-19T15:47:45;28.60;66.30
14142;DHT22;7151;52.246;4.820;2022-08-19T15:50:16;28.50;66.20
14142;DHT22;7151;52.246;4.820;2022-08-19T15:52:50;28.50;66.30
14142;DHT22;7151;52.246;4.820;2022-08-19T15:55:19;28.40;66.60
14142;DHT22;7151;52.246;4.820;2022-08-19T15:57:45;28.40;66.60